KEFD/EFD METAR and TAF weather

Enter ICAO airport designator
Station Type Date Time Source
KEFD METAR 2018/01/22 19:50 UTC NOAA

KEFD 221950Z 31014G23KT 10SM SCT200 18/M03 A3002


Station Type Date Time Source
KEFD Decoded METAR 2018/01/22 19:50 UTC NOAA

Houston / Ellington, TX, United States (KEFD) 29-36N 095-10W
Jan 22, 2018 - 02:50 PM EST / 2018.01.22 1950 UTC
Wind: from the NW (310 degrees) at 16 MPH (14 KT) gusting to 26 MPH (23 KT):0
Visibility: 10 mile(s):0
Sky conditions: partly cloudy
Temperature: 64 F (18 C)
Dew Point: 26 F (-3 C)
Relative Humidity: 23%
Pressure (altimeter): 30.02 in. Hg (1016 hPa)
ob: KEFD 221950Z 31014G23KT 10SM SCT200 18/M03 A3002
cycle: 20

Station Type Date Time Source
KEFD TAF 2018/01/22 04:17 UTC NOAA

TAF KEFD 220400Z 2204/2310 18009KT 6000 -SHRA BR OVC007 QNH2989INS
TEMPO 2209/2211 26015G25KT 3200 -TSRA BR OVC005CB
BECMG 2212/2213 31010G15KT 9999 NSW BKN007 QNH2998INS
BECMG 2214/2215 31012G20KT 9999 FEW020 QNH3003INS
BECMG 2223/2224 32006KT 9999 SKC QNH3006INS TX20/2204Z TN11/2304Z


Example: see airport list